createdAt,value
2019-01-30T00:00:07.994Z,11.90
2019-01-30T00:01:08.174Z,12.20
2019-01-30T00:02:08.348Z,13.10
2019-01-30T00:03:08.525Z,13.10
2019-01-30T00:04:08.703Z,12.70
2019-01-30T00:05:08.877Z,13.20
2019-01-30T00:06:09.054Z,13.20
2019-01-30T00:07:09.231Z,12.70
2019-01-30T00:08:09.409Z,13.50
2019-01-30T00:09:09.586Z,12.90
2019-01-30T00:10:09.761Z,12.90
2019-01-30T00:11:09.941Z,12.40
2019-01-30T00:12:10.115Z,12.00
2019-01-30T00:13:10.295Z,13.10
2019-01-30T00:14:10.469Z,12.20
2019-01-30T00:15:10.653Z,11.90
2019-01-30T00:16:10.836Z,12.90
2019-01-30T00:17:11.015Z,13.00
2019-01-30T00:18:11.197Z,13.00
2019-01-30T00:19:11.390Z,12.50
2019-01-30T00:20:11.575Z,13.60
2019-01-30T00:21:11.757Z,13.50
2019-01-30T00:22:11.939Z,13.40
2019-01-30T00:23:12.118Z,13.00
2019-01-30T00:24:12.295Z,12.60
2019-01-30T00:25:12.473Z,13.70
2019-01-30T00:26:12.649Z,12.00
2019-01-30T00:27:12.830Z,12.50
2019-01-30T00:28:13.006Z,12.90
2019-01-30T00:29:13.180Z,12.20
2019-01-30T00:30:13.356Z,12.50
2019-01-30T00:31:13.536Z,12.80
2019-01-30T00:32:15.110Z,13.60
2019-01-30T00:33:13.901Z,12.30
2019-01-30T00:34:14.076Z,12.70
2019-01-30T00:35:14.257Z,13.10
2019-01-30T00:36:14.434Z,13.20
2019-01-30T00:37:14.612Z,13.30
2019-01-30T00:38:14.794Z,14.60
2019-01-30T00:39:14.963Z,13.30
2019-01-30T00:40:15.143Z,13.60
2019-01-30T00:41:15.313Z,13.00
2019-01-30T00:42:15.494Z,12.50
2019-01-30T00:43:15.676Z,13.20
2019-01-30T00:44:15.850Z,12.50
2019-01-30T00:45:16.028Z,12.90
2019-01-30T00:46:16.203Z,12.60
2019-01-30T00:47:16.376Z,11.90
2019-01-30T00:48:16.555Z,12.90
2019-01-30T00:49:16.741Z,12.50
2019-01-30T00:50:16.910Z,12.60
2019-01-30T00:51:17.081Z,13.50
2019-01-30T00:52:17.278Z,12.80
2019-01-30T00:53:17.452Z,12.10
2019-01-30T00:54:17.640Z,13.00
2019-01-30T00:55:17.811Z,11.70
2019-01-30T00:56:17.993Z,11.10
2019-01-30T00:57:18.173Z,12.40
2019-01-30T00:58:18.351Z,12.20
2019-01-30T00:59:18.534Z,11.10
2019-01-30T01:00:18.708Z,10.90
2019-01-30T01:01:18.888Z,11.20
2019-01-30T01:02:19.056Z,11.50
2019-01-30T01:03:19.242Z,10.30
2019-01-30T01:04:19.417Z,11.30
2019-01-30T01:05:19.595Z,10.60
2019-01-30T01:06:19.779Z,11.30
2019-01-30T01:07:19.967Z,11.20
2019-01-30T01:08:20.149Z,10.30
2019-01-30T01:09:20.318Z,11.50
2019-01-30T01:10:20.490Z,11.00
2019-01-30T01:11:20.680Z,10.60
2019-01-30T01:12:20.853Z,10.40
2019-01-30T01:13:21.026Z,10.10
2019-01-30T01:14:21.205Z,10.60
2019-01-30T01:15:21.378Z,11.10
2019-01-30T01:16:21.555Z,11.40
2019-01-30T01:17:21.738Z,10.90
2019-01-30T01:18:21.918Z,11.50
2019-01-30T01:19:22.097Z,11.50
2019-01-30T01:20:22.273Z,12.10
2019-01-30T01:21:22.462Z,11.80
2019-01-30T01:22:22.622Z,10.40
2019-01-30T01:23:22.795Z,11.70
2019-01-30T01:24:22.979Z,10.90
2019-01-30T01:25:23.151Z,10.20
2019-01-30T01:26:23.327Z,10.90
2019-01-30T01:27:23.506Z,12.20
2019-01-30T01:28:23.690Z,11.80
2019-01-30T01:29:23.869Z,11.10
2019-01-30T01:30:25.714Z,12.10
2019-01-30T01:31:24.222Z,12.40
2019-01-30T01:32:24.410Z,10.60
2019-01-30T01:33:24.589Z,10.50
2019-01-30T01:34:24.781Z,10.70
2019-01-30T01:35:24.952Z,11.70
2019-01-30T01:36:25.140Z,10.90
2019-01-30T01:37:25.316Z,12.40
2019-01-30T01:38:25.491Z,11.10
2019-01-30T01:39:25.670Z,11.70
2019-01-30T01:40:25.847Z,11.50
2019-01-30T01:41:26.044Z,11.10
2019-01-30T01:42:26.216Z,11.00
2019-01-30T01:43:26.389Z,10.20
2019-01-30T01:44:26.565Z,9.70
2019-01-30T01:45:26.744Z,11.20
2019-01-30T01:46:26.923Z,11.50
2019-01-30T01:47:27.099Z,10.50
2019-01-30T01:48:27.276Z,10.10
2019-01-30T01:49:27.455Z,10.40
2019-01-30T01:50:27.629Z,10.90
2019-01-30T01:51:27.809Z,11.50
2019-01-30T01:52:27.996Z,10.10
2019-01-30T01:53:28.170Z,9.90
2019-01-30T01:54:28.346Z,10.40
2019-01-30T01:55:28.525Z,9.80
2019-01-30T01:56:28.703Z,9.40
2019-01-30T01:57:28.882Z,10.00
2019-01-30T01:58:29.064Z,10.20
2019-01-30T01:59:29.238Z,10.00
2019-01-30T02:00:35.253Z,10.70
2019-01-30T02:01:29.596Z,9.50
2019-01-30T02:02:29.773Z,9.50
2019-01-30T02:03:29.953Z,8.60
2019-01-30T02:04:30.126Z,8.50
2019-01-30T02:05:30.414Z,8.90
2019-01-30T02:06:30.494Z,10.10
2019-01-30T02:07:30.673Z,9.40
2019-01-30T02:08:30.847Z,9.50
2019-01-30T02:09:31.033Z,8.70
2019-01-30T02:10:31.209Z,9.60
2019-01-30T02:11:31.383Z,9.10
2019-01-30T02:12:31.569Z,8.40
2019-01-30T02:13:31.743Z,9.80
2019-01-30T02:14:31.917Z,9.00
2019-01-30T02:15:32.098Z,8.70
2019-01-30T02:16:32.271Z,9.00
2019-01-30T02:17:32.448Z,8.80
2019-01-30T02:18:32.646Z,8.50
2019-01-30T02:19:32.800Z,9.10
2019-01-30T02:20:32.981Z,9.00
2019-01-30T02:21:33.159Z,9.10
2019-01-30T02:22:33.336Z,10.30
2019-01-30T02:23:33.506Z,10.30
2019-01-30T02:24:33.785Z,10.00
2019-01-30T02:25:33.847Z,9.90
2019-01-30T02:26:34.035Z,10.10
2019-01-30T02:27:34.246Z,9.60
2019-01-30T02:28:34.389Z,9.00
2019-01-30T02:29:34.561Z,9.50
2019-01-30T02:30:34.739Z,9.20
2019-01-30T02:31:34.923Z,9.50
2019-01-30T02:32:35.100Z,9.00
2019-01-30T02:33:35.277Z,8.90
2019-01-30T02:34:35.453Z,10.00
2019-01-30T02:35:35.638Z,8.70
2019-01-30T02:36:35.816Z,8.90
2019-01-30T02:37:36.021Z,9.50
2019-01-30T02:38:36.173Z,9.60
2019-01-30T02:39:36.341Z,8.70
2019-01-30T02:40:36.520Z,9.30
2019-01-30T02:41:36.702Z,9.90
2019-01-30T02:42:36.875Z,9.00
2019-01-30T02:43:37.058Z,9.20
2019-01-30T02:44:37.234Z,8.40
2019-01-30T02:45:37.407Z,9.70
2019-01-30T02:46:37.585Z,8.90
2019-01-30T02:47:37.761Z,8.90
2019-01-30T02:48:37.939Z,9.00
2019-01-30T02:49:38.116Z,9.10
2019-01-30T02:50:38.298Z,9.40
2019-01-30T02:51:38.481Z,9.50
2019-01-30T02:52:38.661Z,8.90
2019-01-30T02:53:38.833Z,8.70
2019-01-30T02:54:38.998Z,9.90
2019-01-30T02:55:39.184Z,9.20
2019-01-30T02:56:39.358Z,9.80
2019-01-30T02:57:39.534Z,8.60
2019-01-30T02:58:39.731Z,8.60
2019-01-30T02:59:39.883Z,8.80
2019-01-30T03:00:40.062Z,8.60
2019-01-30T03:01:40.237Z,9.20
2019-01-30T03:02:40.415Z,8.50
2019-01-30T03:03:40.591Z,9.20
2019-01-30T03:04:40.778Z,8.50
2019-01-30T03:05:40.968Z,8.50
2019-01-30T03:06:41.129Z,9.40
2019-01-30T03:07:41.315Z,8.10
2019-01-30T03:08:41.493Z,8.00
2019-01-30T03:09:41.662Z,9.60
2019-01-30T03:10:41.837Z,8.20
2019-01-30T03:11:42.017Z,9.00
2019-01-30T03:12:42.200Z,8.20
2019-01-30T03:13:42.377Z,8.80
2019-01-30T03:14:42.547Z,8.80
2019-01-30T03:15:42.727Z,9.40
2019-01-30T03:16:42.907Z,8.30
2019-01-30T03:17:43.087Z,9.10
2019-01-30T03:18:43.266Z,8.70
2019-01-30T03:19:43.443Z,8.70
2019-01-30T03:20:43.628Z,8.90
2019-01-30T03:21:43.795Z,8.40
2019-01-30T03:22:43.972Z,8.80
2019-01-30T03:23:44.156Z,9.20
2019-01-30T03:24:44.332Z,8.60
2019-01-30T03:25:44.513Z,8.80
2019-01-30T03:26:44.691Z,8.80
2019-01-30T03:27:44.876Z,8.40
2019-01-30T03:28:45.047Z,7.80
2019-01-30T03:29:45.225Z,9.00
2019-01-30T03:30:45.403Z,8.20
2019-01-30T03:31:45.584Z,7.80
2019-01-30T03:32:45.757Z,8.70
2019-01-30T03:33:45.941Z,8.70
2019-01-30T03:34:46.116Z,8.30
2019-01-30T03:35:46.309Z,8.60
2019-01-30T03:36:46.469Z,8.10
2019-01-30T03:37:46.728Z,8.90
2019-01-30T03:38:46.823Z,8.10
2019-01-30T03:39:47.016Z,8.50
2019-01-30T03:40:47.179Z,8.60
2019-01-30T03:41:47.354Z,8.00
2019-01-30T03:42:47.533Z,8.20
2019-01-30T03:43:47.722Z,8.00
2019-01-30T03:44:47.895Z,8.20
2019-01-30T03:45:48.078Z,8.60
2019-01-30T03:46:48.252Z,8.30
2019-01-30T03:47:48.432Z,9.10
2019-01-30T03:48:48.606Z,8.20
2019-01-30T03:49:48.784Z,8.60
2019-01-30T03:50:48.965Z,9.20
2019-01-30T03:51:49.137Z,8.90
2019-01-30T03:52:49.322Z,9.00
2019-01-30T03:53:49.493Z,8.60
2019-01-30T03:54:49.667Z,9.30
2019-01-30T03:55:49.838Z,9.50
2019-01-30T03:56:50.022Z,9.70
2019-01-30T03:57:50.206Z,9.30
2019-01-30T03:58:50.375Z,9.30
2019-01-30T03:59:50.559Z,9.70
2019-01-30T04:00:50.735Z,9.70
2019-01-30T04:01:50.911Z,8.60
2019-01-30T04:02:51.091Z,8.60
2019-01-30T04:03:51.266Z,9.30
2019-01-30T04:04:51.445Z,8.20
2019-01-30T04:05:51.622Z,8.30
2019-01-30T04:06:51.800Z,8.80
2019-01-30T04:07:51.971Z,7.80
2019-01-30T04:08:52.151Z,8.30
2019-01-30T04:09:52.333Z,8.60
2019-01-30T04:10:52.507Z,8.80
2019-01-30T04:11:52.688Z,8.60
2019-01-30T04:12:52.868Z,8.50
2019-01-30T04:13:53.043Z,8.70
2019-01-30T04:14:53.229Z,8.40
2019-01-30T04:15:53.396Z,8.50
2019-01-30T04:16:53.571Z,8.50
2019-01-30T04:17:53.768Z,7.90
2019-01-30T04:18:53.922Z,8.10
2019-01-30T04:19:54.098Z,8.80
2019-01-30T04:20:54.277Z,8.70
2019-01-30T04:21:54.453Z,8.60
2019-01-30T04:22:54.630Z,8.70
2019-01-30T04:23:54.807Z,8.10
2019-01-30T04:24:54.990Z,8.10
2019-01-30T04:25:55.169Z,8.10
2019-01-30T04:26:55.352Z,7.70
2019-01-30T04:27:55.532Z,8.50
2019-01-30T04:28:55.705Z,8.90
2019-01-30T04:29:55.881Z,8.30
2019-01-30T04:30:56.057Z,8.90
2019-01-30T04:31:56.235Z,7.80
2019-01-30T04:32:56.410Z,8.50
2019-01-30T04:33:56.587Z,8.50
2019-01-30T04:34:56.773Z,8.80
2019-01-30T04:35:56.951Z,7.60
2019-01-30T04:36:57.111Z,7.90
2019-01-30T04:37:57.296Z,8.60
2019-01-30T04:38:57.468Z,9.00
2019-01-30T04:39:57.645Z,8.30
2019-01-30T04:40:57.824Z,9.20
2019-01-30T04:41:58.003Z,8.20
2019-01-30T04:42:58.186Z,9.00
2019-01-30T04:43:58.366Z,7.90
2019-01-30T04:44:58.538Z,8.00
2019-01-30T04:45:58.712Z,8.20
2019-01-30T04:46:58.887Z,7.90
2019-01-30T04:47:59.121Z,8.90
2019-01-30T04:48:59.282Z,7.60
2019-01-30T04:49:59.446Z,7.80
2019-01-30T04:50:59.641Z,7.90
2019-01-30T04:51:59.810Z,8.10
2019-01-30T04:52:59.981Z,8.60
2019-01-30T04:54:00.174Z,8.00
2019-01-30T04:55:00.444Z,7.80
2019-01-30T04:56:00.513Z,7.80
2019-01-30T04:57:00.704Z,8.70
2019-01-30T04:58:00.877Z,8.10
2019-01-30T04:59:01.061Z,8.60
2019-01-30T05:00:01.251Z,8.40
2019-01-30T05:01:01.413Z,8.40
2019-01-30T05:02:01.595Z,7.90
2019-01-30T05:03:01.765Z,7.70
2019-01-30T05:04:01.940Z,7.90
2019-01-30T05:05:02.115Z,8.30
2019-01-30T05:06:02.289Z,7.50
2019-01-30T05:07:02.468Z,8.00
2019-01-30T05:08:02.647Z,7.80
2019-01-30T05:09:02.830Z,7.60
2019-01-30T05:10:03.012Z,7.70
2019-01-30T05:11:03.197Z,7.50
2019-01-30T05:12:03.366Z,8.20
2019-01-30T05:13:03.547Z,7.60
2019-01-30T05:14:03.722Z,8.20
2019-01-30T05:15:03.904Z,7.70
2019-01-30T05:16:04.086Z,7.10
2019-01-30T05:17:04.261Z,7.50
2019-01-30T05:18:04.441Z,7.70
2019-01-30T05:19:04.616Z,7.50
2019-01-30T05:20:04.797Z,8.00
2019-01-30T05:21:04.973Z,7.80
2019-01-30T05:22:05.163Z,7.50
2019-01-30T05:23:05.332Z,7.70
2019-01-30T05:24:05.514Z,7.00
2019-01-30T05:25:05.684Z,7.40
2019-01-30T05:26:05.864Z,7.70
2019-01-30T05:27:06.040Z,7.60
2019-01-30T05:28:06.331Z,7.30
2019-01-30T05:29:06.392Z,6.80
2019-01-30T05:30:06.571Z,6.90
2019-01-30T05:31:06.748Z,7.30
2019-01-30T05:32:06.928Z,6.90
2019-01-30T05:33:07.127Z,7.60
2019-01-30T05:34:07.302Z,6.90
2019-01-30T05:35:07.478Z,7.00
2019-01-30T05:36:07.654Z,6.40
2019-01-30T05:37:07.835Z,6.40
2019-01-30T05:38:08.012Z,6.50
2019-01-30T05:39:08.188Z,7.00
2019-01-30T05:40:08.366Z,6.90
2019-01-30T05:41:08.562Z,6.90
2019-01-30T05:42:08.743Z,6.80
2019-01-30T05:43:08.919Z,7.10
2019-01-30T05:44:09.098Z,7.20
2019-01-30T05:45:09.274Z,7.30
2019-01-30T05:46:09.455Z,7.40
2019-01-30T05:47:09.629Z,7.30
2019-01-30T05:48:09.804Z,7.30
2019-01-30T05:49:09.995Z,7.30
2019-01-30T05:50:10.186Z,6.80
2019-01-30T05:51:10.338Z,6.90
2019-01-30T05:52:10.513Z,7.30
2019-01-30T05:53:10.694Z,7.20
2019-01-30T05:54:10.874Z,6.70
2019-01-30T05:55:11.055Z,7.00
2019-01-30T05:56:11.231Z,7.20
2019-01-30T05:57:11.414Z,6.80
2019-01-30T05:58:11.593Z,7.30
2019-01-30T05:59:11.765Z,7.00
2019-01-30T06:00:11.944Z,7.50
2019-01-30T06:01:12.124Z,7.20
2019-01-30T06:02:12.641Z,6.40
2019-01-30T06:03:12.475Z,7.00
2019-01-30T06:04:12.656Z,6.60
2019-01-30T06:05:12.844Z,6.30
2019-01-30T06:06:13.019Z,7.00
2019-01-30T06:07:13.195Z,6.50
2019-01-30T06:08:13.375Z,6.30
2019-01-30T06:09:13.556Z,6.50
2019-01-30T06:10:13.731Z,6.40
2019-01-30T06:11:13.907Z,7.30
2019-01-30T06:12:14.092Z,6.30
2019-01-30T06:13:14.277Z,6.70
2019-01-30T06:14:14.457Z,7.40
2019-01-30T06:15:14.642Z,6.80
2019-01-30T06:16:14.818Z,6.80
2019-01-30T06:17:14.989Z,7.20
2019-01-30T06:18:15.165Z,7.10
2019-01-30T06:19:15.348Z,6.60
2019-01-30T06:20:15.518Z,6.20
2019-01-30T06:21:15.691Z,6.90
2019-01-30T06:22:15.874Z,6.60
2019-01-30T06:23:16.057Z,6.60
2019-01-30T06:24:16.233Z,7.10
2019-01-30T06:25:16.410Z,6.70
2019-01-30T06:26:16.585Z,6.90
2019-01-30T06:27:16.758Z,6.20
2019-01-30T06:28:16.937Z,5.90
2019-01-30T06:29:17.116Z,5.60
2019-01-30T06:30:17.294Z,6.60
2019-01-30T06:31:17.470Z,6.80
2019-01-30T06:32:21.912Z,5.90
2019-01-30T06:33:17.822Z,6.70
2019-01-30T06:34:18.006Z,6.70
2019-01-30T06:35:18.179Z,6.70
2019-01-30T06:36:18.357Z,5.70
2019-01-30T06:37:18.536Z,6.40
2019-01-30T06:38:18.711Z,6.60
2019-01-30T06:39:18.889Z,5.60
2019-01-30T06:40:19.064Z,5.20
2019-01-30T06:41:19.241Z,5.20
2019-01-30T06:42:19.437Z,5.80
2019-01-30T06:43:19.602Z,5.40
2019-01-30T06:44:19.779Z,5.80
2019-01-30T06:45:19.956Z,5.70
2019-01-30T06:46:20.144Z,6.10
2019-01-30T06:47:20.319Z,5.30
2019-01-30T06:48:20.498Z,6.10
2019-01-30T06:49:20.678Z,5.20
2019-01-30T06:50:20.878Z,5.20
2019-01-30T06:51:21.049Z,4.90
2019-01-30T06:52:21.242Z,5.20
2019-01-30T06:53:21.413Z,5.90
2019-01-30T06:54:21.593Z,5.90
2019-01-30T06:55:21.782Z,5.40
2019-01-30T06:56:21.958Z,5.20
2019-01-30T06:57:22.137Z,5.80
2019-01-30T06:58:22.313Z,5.40
2019-01-30T06:59:22.500Z,4.90
2019-01-30T07:00:22.678Z,5.00
2019-01-30T07:01:22.856Z,5.10
2019-01-30T07:02:32.196Z,5.60
2019-01-30T07:03:23.217Z,5.20
2019-01-30T07:04:23.398Z,5.20
2019-01-30T07:05:23.593Z,4.70
2019-01-30T07:06:23.763Z,4.50
2019-01-30T07:07:23.941Z,5.20
2019-01-30T07:08:24.121Z,4.70
2019-01-30T07:09:24.318Z,4.80
2019-01-30T07:10:24.477Z,4.60
2019-01-30T07:11:24.652Z,5.10
2019-01-30T07:12:24.869Z,4.60
2019-01-30T07:13:25.026Z,4.90
2019-01-30T07:14:25.200Z,4.50
2019-01-30T07:15:25.395Z,4.40
2019-01-30T07:16:25.573Z,4.10
2019-01-30T07:17:25.744Z,4.20
2019-01-30T07:18:25.922Z,4.40
2019-01-30T07:19:26.099Z,4.10
2019-01-30T07:20:26.325Z,4.40
2019-01-30T07:21:26.457Z,4.70
2019-01-30T07:22:26.631Z,4.40
2019-01-30T07:23:26.823Z,4.90
2019-01-30T07:24:27.000Z,4.80
2019-01-30T07:25:27.175Z,5.20
2019-01-30T07:26:27.357Z,4.20
2019-01-30T07:27:27.529Z,4.40
2019-01-30T07:28:27.708Z,4.40
2019-01-30T07:29:27.889Z,4.50
2019-01-30T07:30:28.060Z,3.80
2019-01-30T07:31:28.240Z,4.50
2019-01-30T07:32:28.414Z,4.10
2019-01-30T07:33:28.593Z,4.70
2019-01-30T07:34:28.773Z,4.30
2019-01-30T07:35:28.958Z,3.90
2019-01-30T07:36:29.130Z,4.60
2019-01-30T07:37:29.306Z,4.90
2019-01-30T07:38:29.482Z,4.30
2019-01-30T07:39:29.661Z,4.30
2019-01-30T07:40:29.845Z,4.20
2019-01-30T07:41:30.017Z,3.80
2019-01-30T07:42:30.202Z,4.50
2019-01-30T07:43:30.378Z,4.60
2019-01-30T07:44:30.556Z,4.00
2019-01-30T07:45:30.733Z,4.10
2019-01-30T07:46:30.911Z,4.00
2019-01-30T07:47:31.094Z,3.90
2019-01-30T07:48:31.270Z,4.50
2019-01-30T07:49:31.460Z,4.20
2019-01-30T07:50:31.628Z,3.80
2019-01-30T07:51:31.819Z,4.40
2019-01-30T07:52:32.816Z,4.20
2019-01-30T07:53:32.181Z,4.50
2019-01-30T07:54:32.365Z,4.70
2019-01-30T07:55:32.544Z,4.10
2019-01-30T07:56:32.728Z,4.60
2019-01-30T07:57:32.906Z,4.30
2019-01-30T07:58:33.086Z,3.90
2019-01-30T07:59:33.271Z,4.50
2019-01-30T08:00:33.447Z,4.50
2019-01-30T08:01:33.622Z,4.10
2019-01-30T08:02:33.802Z,4.20
2019-01-30T08:03:33.975Z,4.40
2019-01-30T08:04:34.175Z,4.40
2019-01-30T08:05:34.345Z,4.50
2019-01-30T08:06:34.524Z,4.30
2019-01-30T08:07:34.701Z,4.50
2019-01-30T08:08:34.892Z,4.40
2019-01-30T08:09:35.072Z,4.70
2019-01-30T08:10:35.253Z,4.40
2019-01-30T08:11:35.442Z,4.10
2019-01-30T08:12:35.621Z,4.20
2019-01-30T08:13:35.793Z,4.20
2019-01-30T08:14:35.965Z,4.40
2019-01-30T08:15:36.150Z,4.40
2019-01-30T08:16:36.321Z,4.20
2019-01-30T08:17:36.528Z,4.00
2019-01-30T08:18:36.790Z,4.20
2019-01-30T08:19:36.827Z,4.30
2019-01-30T08:20:36.997Z,4.70
2019-01-30T08:21:37.180Z,4.30
2019-01-30T08:22:37.364Z,4.50
2019-01-30T08:23:37.923Z,4.20
2019-01-30T08:24:37.786Z,3.80
2019-01-30T08:25:37.925Z,4.10
2019-01-30T08:26:38.391Z,4.00
2019-01-30T08:27:38.608Z,3.90
2019-01-30T08:28:38.599Z,4.10
2019-01-30T08:29:38.762Z,4.00
2019-01-30T08:30:38.798Z,4.30
2019-01-30T08:31:39.244Z,4.20
2019-01-30T08:32:41.276Z,3.90
2019-01-30T08:33:39.331Z,4.40
2019-01-30T08:34:39.509Z,4.60
2019-01-30T08:35:39.737Z,4.40
2019-01-30T08:36:39.863Z,4.50
2019-01-30T08:37:40.044Z,4.60
2019-01-30T08:38:40.220Z,4.00
2019-01-30T08:39:40.401Z,4.20
2019-01-30T08:40:40.601Z,4.30
2019-01-30T08:41:40.753Z,4.60
2019-01-30T08:42:40.934Z,4.50
2019-01-30T08:43:41.114Z,4.40
2019-01-30T08:44:47.071Z,4.40
2019-01-30T08:45:41.471Z,4.40
2019-01-30T08:46:41.651Z,4.60
2019-01-30T08:47:41.831Z,4.70
2019-01-30T08:48:42.023Z,4.60
2019-01-30T08:49:42.188Z,4.40
2019-01-30T08:50:42.378Z,4.50
2019-01-30T08:51:42.550Z,4.70
2019-01-30T08:52:42.735Z,5.10
2019-01-30T08:53:42.913Z,4.50
2019-01-30T08:54:43.087Z,5.00
2019-01-30T08:55:43.275Z,4.70
2019-01-30T08:56:52.336Z,4.60
2019-01-30T08:57:43.634Z,4.60
2019-01-30T08:58:43.811Z,4.30
2019-01-30T08:59:43.990Z,4.70
2019-01-30T09:00:44.170Z,4.60
2019-01-30T09:01:44.350Z,4.30
2019-01-30T09:02:44.525Z,4.40
2019-01-30T09:03:44.725Z,4.50
2019-01-30T09:04:44.902Z,4.20
2019-01-30T09:05:45.080Z,4.70
2019-01-30T09:06:45.263Z,4.60
2019-01-30T09:07:45.440Z,5.00
2019-01-30T09:08:45.629Z,4.90
2019-01-30T09:09:45.813Z,4.30
2019-01-30T09:10:45.991Z,4.80
2019-01-30T09:11:46.179Z,4.80
2019-01-30T09:12:46.365Z,4.70
2019-01-30T09:13:46.542Z,4.90
2019-01-30T09:14:46.726Z,4.60
2019-01-30T09:15:46.908Z,4.70
2019-01-30T09:16:47.086Z,4.70
2019-01-30T09:17:47.263Z,4.70
2019-01-30T09:18:47.442Z,4.40
2019-01-30T09:19:47.623Z,4.50
2019-01-30T09:20:47.803Z,5.10
2019-01-30T09:21:47.984Z,4.20
2019-01-30T09:22:48.161Z,4.70
2019-01-30T09:23:48.340Z,4.60
2019-01-30T09:24:48.518Z,4.10
2019-01-30T09:25:48.700Z,4.60
2019-01-30T09:26:48.878Z,4.60
2019-01-30T09:27:49.061Z,5.00
2019-01-30T09:28:49.240Z,5.30
2019-01-30T09:29:49.421Z,5.00
2019-01-30T09:30:49.605Z,4.80
2019-01-30T09:31:49.784Z,4.90
2019-01-30T09:32:49.962Z,4.50
2019-01-30T09:33:50.159Z,4.60
2019-01-30T09:34:50.315Z,4.70
2019-01-30T09:35:50.498Z,4.00
2019-01-30T09:36:50.685Z,4.70
2019-01-30T09:37:50.871Z,4.90
2019-01-30T09:38:51.046Z,5.30
2019-01-30T09:39:51.227Z,4.90
2019-01-30T09:40:51.418Z,4.60
2019-01-30T09:41:51.596Z,5.00
2019-01-30T09:42:51.779Z,4.50
2019-01-30T09:43:51.962Z,4.90
2019-01-30T09:44:52.140Z,4.90
2019-01-30T09:45:52.315Z,4.70
2019-01-30T09:46:52.495Z,4.70
2019-01-30T09:47:52.668Z,5.20
2019-01-30T09:48:52.867Z,5.10
2019-01-30T09:49:53.082Z,5.20
2019-01-30T09:50:53.247Z,4.70
2019-01-30T09:51:53.408Z,5.00
2019-01-30T09:52:53.598Z,5.00
2019-01-30T09:53:53.767Z,5.50
2019-01-30T09:54:53.947Z,5.10
2019-01-30T09:55:54.131Z,5.90
2019-01-30T09:56:54.304Z,5.70
2019-01-30T09:57:54.483Z,5.40
2019-01-30T09:58:54.662Z,5.40
2019-01-30T09:59:54.846Z,5.20
2019-01-30T10:00:55.029Z,5.30
2019-01-30T10:01:55.206Z,5.60
2019-01-30T10:02:55.394Z,4.90
2019-01-30T10:03:55.569Z,4.70
2019-01-30T10:04:55.749Z,4.90
2019-01-30T10:05:55.999Z,5.40
2019-01-30T10:06:56.144Z,5.10
2019-01-30T10:07:56.203Z,5.00
2019-01-30T10:08:56.387Z,5.10
2019-01-30T10:09:56.568Z,4.80
2019-01-30T10:10:56.743Z,5.10
2019-01-30T10:11:56.920Z,5.20
2019-01-30T10:12:57.112Z,4.90
2019-01-30T10:13:57.290Z,5.60
2019-01-30T10:14:57.469Z,5.10
2019-01-30T10:15:57.643Z,5.10
2019-01-30T10:16:57.840Z,4.90
2019-01-30T10:17:58.019Z,5.00
2019-01-30T10:19:00.693Z,4.90
2019-01-30T10:19:58.366Z,4.90
2019-01-30T10:20:58.547Z,5.10
2019-01-30T10:21:58.729Z,4.70
2019-01-30T10:22:58.915Z,5.40
2019-01-30T10:23:59.093Z,5.20
2019-01-30T10:24:59.280Z,5.50
2019-01-30T10:25:59.455Z,4.90
2019-01-30T10:26:59.635Z,5.40
2019-01-30T10:27:59.816Z,5.50
2019-01-30T10:28:59.999Z,5.20
2019-01-30T10:30:00.345Z,5.30
2019-01-30T10:31:00.374Z,5.30
2019-01-30T10:32:00.565Z,5.70
2019-01-30T10:33:00.743Z,5.10
2019-01-30T10:34:00.925Z,5.20
2019-01-30T10:35:01.111Z,5.30
2019-01-30T10:36:01.296Z,5.20
2019-01-30T10:37:03.632Z,5.30
2019-01-30T10:38:01.668Z,4.90
2019-01-30T10:39:01.859Z,5.30
2019-01-30T10:40:02.048Z,5.60
2019-01-30T10:41:02.229Z,5.80
2019-01-30T10:42:02.420Z,5.20
2019-01-30T10:43:02.607Z,5.20
2019-01-30T10:44:02.801Z,5.70
2019-01-30T10:45:02.978Z,4.60
2019-01-30T10:46:03.161Z,5.80
2019-01-30T10:47:03.347Z,5.10
2019-01-30T10:48:03.532Z,6.00
2019-01-30T10:49:03.726Z,4.90
2019-01-30T10:50:03.918Z,5.10
2019-01-30T10:51:04.104Z,5.30
2019-01-30T10:52:04.279Z,5.20
2019-01-30T10:53:04.466Z,4.70
2019-01-30T10:54:04.651Z,5.60
2019-01-30T10:55:04.835Z,4.70
2019-01-30T10:56:05.023Z,5.10
2019-01-30T10:57:05.201Z,5.60
2019-01-30T10:58:05.424Z,5.30
2019-01-30T10:59:05.576Z,5.20
2019-01-30T11:00:05.764Z,5.50
2019-01-30T11:01:05.958Z,4.90
2019-01-30T11:02:06.139Z,5.40
2019-01-30T11:03:06.330Z,5.40
2019-01-30T11:04:06.515Z,5.10
2019-01-30T11:05:06.703Z,5.40
2019-01-30T11:06:06.883Z,5.40
2019-01-30T11:07:07.079Z,4.70
2019-01-30T11:08:07.269Z,5.40
2019-01-30T11:09:07.458Z,5.00
2019-01-30T11:10:07.636Z,5.30
2019-01-30T11:11:08.377Z,5.30
2019-01-30T11:12:08.002Z,4.70
2019-01-30T11:13:08.189Z,5.10
2019-01-30T11:14:08.370Z,5.60
2019-01-30T11:15:08.557Z,4.80
2019-01-30T11:16:08.733Z,5.10
2019-01-30T11:17:08.927Z,5.30
2019-01-30T11:18:09.111Z,5.30
2019-01-30T11:19:09.314Z,5.30
2019-01-30T11:20:09.487Z,5.50
2019-01-30T11:21:09.670Z,5.30
2019-01-30T11:22:09.857Z,5.10
2019-01-30T11:23:10.041Z,5.60
2019-01-30T11:24:10.263Z,5.30
2019-01-30T11:25:10.431Z,5.10
2019-01-30T11:26:10.623Z,5.40
2019-01-30T11:27:10.807Z,5.80
2019-01-30T11:28:10.994Z,5.20
2019-01-30T11:29:11.173Z,5.00
2019-01-30T11:30:11.363Z,5.10
2019-01-30T11:31:11.545Z,5.90
2019-01-30T11:32:11.732Z,5.60
2019-01-30T11:33:11.921Z,5.60
2019-01-30T11:34:12.104Z,5.70
2019-01-30T11:35:12.284Z,5.90
2019-01-30T11:36:12.472Z,4.60
2019-01-30T11:37:12.661Z,5.30
2019-01-30T11:38:12.852Z,5.10
2019-01-30T11:39:13.044Z,5.50
2019-01-30T11:40:13.232Z,5.80
2019-01-30T11:41:13.417Z,5.40
2019-01-30T11:42:13.597Z,5.40
2019-01-30T11:43:13.781Z,5.20
2019-01-30T11:44:13.964Z,5.50
2019-01-30T11:45:14.145Z,5.60
2019-01-30T11:46:14.328Z,5.40
2019-01-30T11:47:14.513Z,5.20
2019-01-30T11:48:14.699Z,5.80
2019-01-30T11:49:14.892Z,5.60
2019-01-30T11:50:15.065Z,6.00
2019-01-30T11:51:15.243Z,5.50
2019-01-30T11:52:15.425Z,5.70
2019-01-30T11:53:15.607Z,5.30
2019-01-30T11:54:15.788Z,5.00
2019-01-30T11:55:16.040Z,5.60
2019-01-30T11:56:16.160Z,5.30
2019-01-30T11:57:16.340Z,4.90
2019-01-30T11:58:16.520Z,5.20
2019-01-30T11:59:16.693Z,5.10
2019-01-30T12:00:16.875Z,5.50
2019-01-30T12:01:17.057Z,5.40
2019-01-30T12:02:17.237Z,5.40
2019-01-30T12:03:17.415Z,5.20
2019-01-30T12:04:18.260Z,5.60
2019-01-30T12:05:17.781Z,5.60
2019-01-30T12:06:17.965Z,5.60
2019-01-30T12:07:18.157Z,5.40
2019-01-30T12:08:18.344Z,5.60
2019-01-30T12:09:18.525Z,5.70
2019-01-30T12:10:18.709Z,5.80
2019-01-30T12:11:18.886Z,5.90
2019-01-30T12:12:19.095Z,5.20
2019-01-30T12:13:19.283Z,5.30
2019-01-30T12:14:19.484Z,5.30
2019-01-30T12:15:19.670Z,5.20
2019-01-30T12:16:19.857Z,4.90
2019-01-30T12:17:20.043Z,5.40
2019-01-30T12:18:20.227Z,5.80
2019-01-30T12:19:20.411Z,5.70
2019-01-30T12:20:20.603Z,5.20
2019-01-30T12:21:20.810Z,5.40
2019-01-30T12:22:20.969Z,5.40
2019-01-30T12:23:21.157Z,5.00
2019-01-30T12:24:21.343Z,5.50
2019-01-30T12:25:21.522Z,5.00
2019-01-30T12:26:21.708Z,5.20
2019-01-30T12:27:21.894Z,5.20
2019-01-30T12:28:22.075Z,5.10
2019-01-30T12:29:22.264Z,5.20
2019-01-30T12:30:22.445Z,5.60
2019-01-30T12:31:22.629Z,5.30
2019-01-30T12:32:22.813Z,5.70
2019-01-30T12:33:23.010Z,5.90
2019-01-30T12:34:28.408Z,6.10
2019-01-30T12:35:23.371Z,5.40
2019-01-30T12:36:23.563Z,6.00
2019-01-30T12:37:23.745Z,5.90
2019-01-30T12:38:23.925Z,5.70
2019-01-30T12:39:24.118Z,5.80
2019-01-30T12:40:24.299Z,5.30
2019-01-30T12:41:24.480Z,5.20
2019-01-30T12:42:24.685Z,6.10
2019-01-30T12:43:24.869Z,6.10
2019-01-30T12:44:25.082Z,5.70
2019-01-30T12:45:25.239Z,5.70
2019-01-30T12:46:26.970Z,5.10
2019-01-30T12:47:25.601Z,6.00
2019-01-30T12:48:25.786Z,5.50
2019-01-30T12:49:25.974Z,5.60
2019-01-30T12:50:26.157Z,5.30
2019-01-30T12:51:26.339Z,5.80
2019-01-30T12:52:26.521Z,5.30
2019-01-30T12:53:26.710Z,6.10
2019-01-30T12:54:26.892Z,5.50
2019-01-30T12:55:29.369Z,5.40
2019-01-30T12:56:27.250Z,5.30
2019-01-30T12:57:27.432Z,5.60
2019-01-30T12:58:27.608Z,5.50
2019-01-30T12:59:27.792Z,5.60
2019-01-30T13:00:27.983Z,5.10
2019-01-30T13:01:28.158Z,5.70
2019-01-30T13:02:28.333Z,5.50
2019-01-30T13:03:28.514Z,5.70
2019-01-30T13:04:38.403Z,5.60
2019-01-30T13:05:28.879Z,6.00
2019-01-30T13:06:29.062Z,6.10
2019-01-30T13:07:29.243Z,6.00
2019-01-30T13:08:29.422Z,6.90
2019-01-30T13:09:29.604Z,6.80
2019-01-30T13:10:29.792Z,6.00
2019-01-30T13:11:29.970Z,6.20
2019-01-30T13:12:30.154Z,5.70
2019-01-30T13:13:30.338Z,6.10
2019-01-30T13:14:30.513Z,5.60
2019-01-30T13:15:30.690Z,5.70
2019-01-30T13:16:30.881Z,6.00